createdAt,value
2018-11-05T00:00:19.607Z,10.60
2018-11-05T00:02:50.847Z,10.50
2018-11-05T00:05:20.058Z,10.50
2018-11-05T00:07:48.763Z,10.60
2018-11-05T00:10:17.650Z,10.50
2018-11-05T00:12:46.447Z,10.50
2018-11-05T00:15:15.247Z,10.50
2018-11-05T00:17:44.144Z,10.40
2018-11-05T00:20:12.932Z,10.40
2018-11-05T00:22:42.035Z,10.50
2018-11-05T00:25:12.379Z,10.50
2018-11-05T00:27:41.689Z,10.50
2018-11-05T00:30:12.653Z,10.50
2018-11-05T00:32:41.821Z,10.50
2018-11-05T00:35:10.642Z,10.50
2018-11-05T00:37:39.425Z,10.60
2018-11-05T00:40:10.279Z,10.00
2018-11-05T00:42:39.052Z,10.60
2018-11-05T00:45:08.795Z,10.60
2018-11-05T00:47:37.554Z,10.60
2018-11-05T00:50:08.655Z,10.70
2018-11-05T00:52:37.480Z,10.60
2018-11-05T00:55:06.439Z,10.70
2018-11-05T00:57:35.483Z,10.70
2018-11-05T01:00:06.777Z,10.70
2018-11-05T01:02:35.863Z,10.60
2018-11-05T01:05:06.206Z,10.60
2018-11-05T01:07:35.115Z,10.60
2018-11-05T01:10:04.065Z,10.70
2018-11-05T01:12:32.885Z,10.70
2018-11-05T01:15:01.727Z,10.70
2018-11-05T01:17:30.451Z,10.70
2018-11-05T01:19:59.198Z,10.70
2018-11-05T01:22:27.929Z,10.70
2018-11-05T01:24:56.665Z,10.70
2018-11-05T01:27:25.459Z,10.70
2018-11-05T01:29:54.332Z,10.60
2018-11-05T01:32:23.171Z,10.50
2018-11-05T01:34:51.908Z,10.60
2018-11-05T01:37:20.681Z,10.60
2018-11-05T01:39:49.454Z,10.60
2018-11-05T01:42:18.193Z,10.60
2018-11-05T01:44:46.916Z,10.60
2018-11-05T01:47:16.677Z,10.60
2018-11-05T01:49:45.436Z,10.60
2018-11-05T01:52:14.572Z,10.60
2018-11-05T01:54:43.335Z,10.50
2018-11-05T01:57:12.060Z,10.50
2018-11-05T01:59:40.780Z,10.50
2018-11-05T02:02:09.608Z,10.50
2018-11-05T02:04:38.390Z,10.50
2018-11-05T02:07:08.777Z,10.40
2018-11-05T02:09:38.580Z,10.50
2018-11-05T02:12:07.513Z,10.50
2018-11-05T02:14:36.637Z,10.50
2018-11-05T02:17:05.606Z,10.50
2018-11-05T02:19:34.591Z,10.50
2018-11-05T02:22:03.308Z,10.50
2018-11-05T02:24:32.793Z,10.50
2018-11-05T02:27:01.780Z,10.60
2018-11-05T02:29:30.453Z,10.50
2018-11-05T02:31:59.183Z,10.50
2018-11-05T02:34:27.980Z,10.50
2018-11-05T02:36:56.920Z,10.50
2018-11-05T02:39:25.931Z,10.50
2018-11-05T02:41:54.696Z,10.50
2018-11-05T02:44:23.410Z,10.60
2018-11-05T02:46:52.474Z,10.50
2018-11-05T02:49:21.207Z,10.50
2018-11-05T02:51:49.957Z,10.60
2018-11-05T02:54:18.673Z,10.60
2018-11-05T02:56:47.393Z,10.50
2018-11-05T02:59:16.115Z,10.50
2018-11-05T03:01:44.863Z,10.40
2018-11-05T03:04:13.620Z,10.40
2018-11-05T03:06:42.372Z,10.40
2018-11-05T03:09:12.400Z,10.40
2018-11-05T03:11:41.793Z,10.40
2018-11-05T03:14:10.616Z,10.40
2018-11-05T03:16:39.442Z,10.40
2018-11-05T03:19:08.221Z,10.40
2018-11-05T03:21:37.090Z,10.40
2018-11-05T03:24:06.066Z,10.40
2018-11-05T03:29:10.946Z,10.40
2018-11-05T03:31:40.026Z,10.40
2018-11-05T03:34:09.490Z,10.50
2018-11-05T03:36:38.281Z,10.50
2018-11-05T03:39:08.414Z,10.50
2018-11-05T03:41:37.357Z,10.40
2018-11-05T03:44:06.593Z,10.40
2018-11-05T03:46:35.509Z,10.40
2018-11-05T03:49:04.930Z,10.40
2018-11-05T03:51:40.329Z,10.50
2018-11-05T03:54:09.320Z,10.50
2018-11-05T03:56:38.176Z,10.50
2018-11-05T03:59:06.966Z,10.50
2018-11-05T04:01:35.773Z,10.50
2018-11-05T04:04:04.602Z,10.50
2018-11-05T04:06:33.314Z,10.50
2018-11-05T04:09:02.176Z,10.50
2018-11-05T04:11:30.950Z,10.50
2018-11-05T04:13:59.738Z,10.50
2018-11-05T04:19:05.789Z,10.50
2018-11-05T04:21:49.870Z,10.50
2018-11-05T04:24:18.660Z,10.50
2018-11-05T04:26:47.469Z,10.50
2018-11-05T04:29:16.216Z,10.50
2018-11-05T04:31:45.066Z,10.50
2018-11-05T04:34:14.222Z,10.50
2018-11-05T04:36:43.020Z,10.60
2018-11-05T04:39:14.501Z,10.50
2018-11-05T04:41:43.671Z,10.60
2018-11-05T04:44:12.553Z,10.60
2018-11-05T04:46:41.245Z,10.60
2018-11-05T04:49:10.244Z,10.60
2018-11-05T04:51:39.001Z,10.70
2018-11-05T04:54:07.859Z,10.70
2018-11-05T04:56:36.770Z,10.70
2018-11-05T04:59:06.445Z,10.70
2018-11-05T05:01:35.341Z,10.70
2018-11-05T05:04:04.418Z,10.70
2018-11-05T05:06:33.181Z,10.70
2018-11-05T05:09:01.953Z,10.70
2018-11-05T05:11:30.708Z,10.80
2018-11-05T05:13:59.551Z,10.70
2018-11-05T05:16:28.292Z,10.80
2018-11-05T05:18:57.040Z,10.80
2018-11-05T05:21:25.772Z,10.70
2018-11-05T05:23:54.594Z,10.80
2018-11-05T05:26:23.751Z,10.80
2018-11-05T05:28:52.797Z,10.80
2018-11-05T05:31:21.996Z,10.80
2018-11-05T05:33:50.816Z,10.80
2018-11-05T05:36:19.977Z,10.80
2018-11-05T05:38:48.718Z,10.80
2018-11-05T05:41:17.672Z,10.80
2018-11-05T05:43:46.359Z,10.80
2018-11-05T05:46:15.129Z,10.80
2018-11-05T05:48:44.163Z,10.70
2018-11-05T05:51:13.029Z,10.80
2018-11-05T05:53:41.811Z,10.80
2018-11-05T05:56:10.629Z,10.80
2018-11-05T05:58:39.464Z,10.80
2018-11-05T06:01:08.189Z,10.80
2018-11-05T06:03:36.926Z,10.80
2018-11-05T06:06:06.561Z,10.80
2018-11-05T06:08:35.233Z,10.80
2018-11-05T06:11:03.961Z,10.80
2018-11-05T06:13:32.758Z,10.90
2018-11-05T06:16:01.753Z,10.90
2018-11-05T06:18:30.286Z,10.80
2018-11-05T06:20:59.165Z,10.80
2018-11-05T06:23:27.898Z,10.80
2018-11-05T06:25:56.634Z,10.90
2018-11-05T06:28:25.416Z,10.90
2018-11-05T06:30:54.116Z,10.90
2018-11-05T06:33:22.949Z,10.90
2018-11-05T06:35:51.696Z,10.90
2018-11-05T06:38:20.499Z,10.90
2018-11-05T06:40:49.284Z,11.00
2018-11-05T06:43:18.030Z,11.00
2018-11-05T06:45:46.736Z,11.00
2018-11-05T06:48:15.456Z,11.00
2018-11-05T06:50:44.197Z,11.00
2018-11-05T06:53:12.941Z,11.00
2018-11-05T06:55:41.698Z,11.00
2018-11-05T06:58:10.807Z,10.90
2018-11-05T07:00:39.704Z,11.00
2018-11-05T07:03:08.513Z,11.00
2018-11-05T07:05:37.580Z,10.90
2018-11-05T07:08:06.236Z,10.90
2018-11-05T07:10:35.867Z,11.00
2018-11-05T07:13:04.588Z,11.00
2018-11-05T07:15:33.300Z,10.90
2018-11-05T07:18:02.036Z,10.90
2018-11-05T07:20:30.744Z,10.90
2018-11-05T07:22:59.516Z,10.90
2018-11-05T07:25:28.212Z,11.00
2018-11-05T07:27:56.946Z,11.00
2018-11-05T07:30:25.675Z,11.00
2018-11-05T07:32:55.517Z,11.00
2018-11-05T07:35:24.278Z,11.00
2018-11-05T07:37:53.037Z,11.00
2018-11-05T07:40:21.788Z,11.00
2018-11-05T07:42:50.597Z,11.00
2018-11-05T07:45:20.713Z,10.90
2018-11-05T07:47:49.584Z,11.00
2018-11-05T07:50:19.424Z,11.00
2018-11-05T07:52:48.257Z,11.10
2018-11-05T07:55:18.438Z,11.10
2018-11-05T07:57:48.119Z,11.10
2018-11-05T08:00:22.301Z,11.00
2018-11-05T08:02:52.659Z,11.00
2018-11-05T08:05:22.859Z,11.00
2018-11-05T08:07:51.807Z,11.00
2018-11-05T08:10:20.648Z,11.10
2018-11-05T08:12:49.460Z,11.10
2018-11-05T08:15:23.472Z,11.10
2018-11-05T08:17:53.552Z,11.10
2018-11-05T08:20:22.276Z,11.00
2018-11-05T08:22:51.128Z,11.10
2018-11-05T08:25:19.857Z,11.00
2018-11-05T08:27:48.689Z,11.10
2018-11-05T08:30:21.546Z,11.10
2018-11-05T08:32:50.349Z,11.00
2018-11-05T08:35:19.037Z,11.00
2018-11-05T08:37:48.068Z,11.00
2018-11-05T08:40:19.276Z,11.00
2018-11-05T08:42:48.830Z,11.00
2018-11-05T08:45:18.925Z,11.10
2018-11-05T08:47:47.686Z,11.10
2018-11-05T08:50:17.841Z,11.10
2018-11-05T08:52:46.600Z,11.10
2018-11-05T08:55:17.033Z,11.20
2018-11-05T08:57:45.875Z,11.20
2018-11-05T09:00:22.580Z,12.70
2018-11-05T09:02:51.579Z,11.20
2018-11-05T09:05:20.485Z,11.20
2018-11-05T09:07:49.983Z,11.20
2018-11-05T09:10:18.971Z,11.20
2018-11-05T09:12:47.548Z,11.20
2018-11-05T09:15:17.656Z,11.30
2018-11-05T09:17:47.598Z,11.30
2018-11-05T09:20:17.277Z,11.40
2018-11-05T09:22:46.375Z,11.40
2018-11-05T09:25:16.608Z,11.50
2018-11-05T09:27:45.349Z,11.50
2018-11-05T09:30:16.487Z,11.50
2018-11-05T09:32:45.934Z,11.40
2018-11-05T09:35:14.737Z,11.30
2018-11-05T09:37:43.448Z,11.40
2018-11-05T09:40:17.016Z,11.30
2018-11-05T09:42:46.534Z,11.40
2018-11-05T09:45:17.549Z,11.40
2018-11-05T09:47:47.156Z,11.30
2018-11-05T09:50:16.341Z,11.40
2018-11-05T09:52:45.081Z,11.30
2018-11-05T09:55:14.284Z,11.30
2018-11-05T09:57:43.110Z,11.30
2018-11-05T10:00:15.887Z,11.30
2018-11-05T10:02:50.287Z,11.30
2018-11-05T10:05:18.997Z,11.30
2018-11-05T10:07:47.922Z,11.30
2018-11-05T10:10:17.470Z,11.40
2018-11-05T10:12:46.184Z,12.10
2018-11-05T10:15:17.131Z,11.50
2018-11-05T10:17:45.882Z,11.60
2018-11-05T10:20:17.189Z,11.60
2018-11-05T10:22:50.172Z,11.60
2018-11-05T10:25:19.696Z,11.70
2018-11-05T10:27:49.122Z,11.70
2018-11-05T10:30:25.361Z,11.60
2018-11-05T10:32:54.112Z,11.60
2018-11-05T10:35:28.243Z,11.60
2018-11-05T10:37:57.164Z,11.60
2018-11-05T10:40:25.975Z,11.60
2018-11-05T10:42:54.661Z,11.60
2018-11-05T10:45:23.987Z,11.60
2018-11-05T10:47:54.859Z,11.60
2018-11-05T10:50:30.184Z,11.60
2018-11-05T10:52:59.045Z,11.60
2018-11-05T10:55:27.860Z,11.70
2018-11-05T10:57:57.050Z,11.70
2018-11-05T11:00:37.017Z,11.60
2018-11-05T11:03:13.343Z,11.70
2018-11-05T11:05:42.141Z,11.80
2018-11-05T11:08:10.877Z,11.90
2018-11-05T11:10:45.921Z,11.90
2018-11-05T11:13:14.720Z,12.00
2018-11-05T11:15:43.513Z,12.10
2018-11-05T11:18:12.445Z,12.10
2018-11-05T11:20:41.228Z,12.10
2018-11-05T11:23:10.024Z,12.20
2018-11-05T11:25:39.997Z,12.20
2018-11-05T11:28:08.870Z,12.30
2018-11-05T11:30:37.557Z,12.20
2018-11-05T11:33:06.297Z,12.10
2018-11-05T11:35:35.062Z,12.20
2018-11-05T11:38:04.650Z,12.20
2018-11-05T11:40:34.079Z,12.10
2018-11-05T11:43:05.997Z,12.20
2018-11-05T11:48:27.495Z,12.20
2018-11-05T11:50:56.824Z,12.20
2018-11-05T11:53:25.665Z,12.10
2018-11-05T11:55:54.357Z,12.10
2018-11-05T11:58:23.543Z,12.20
2018-11-05T12:00:52.830Z,12.30
2018-11-05T12:03:21.834Z,12.30
2018-11-05T12:05:50.548Z,12.40
2018-11-05T12:08:19.277Z,12.40
2018-11-05T12:10:49.411Z,12.60
2018-11-05T12:13:18.195Z,12.50
2018-11-05T12:15:47.518Z,12.50
2018-11-05T12:18:16.282Z,12.50
2018-11-05T12:20:45.924Z,12.60
2018-11-05T12:23:14.793Z,12.60
2018-11-05T12:25:47.392Z,12.70
2018-11-05T12:28:18.445Z,12.60
2018-11-05T12:30:47.390Z,12.60
2018-11-05T12:33:18.319Z,12.60
2018-11-05T12:35:54.633Z,12.50
2018-11-05T12:38:23.360Z,12.50
2018-11-05T12:40:52.479Z,12.40
2018-11-05T12:43:21.185Z,12.40
2018-11-05T12:45:50.054Z,12.50
2018-11-05T12:48:18.797Z,12.50
2018-11-05T12:50:47.693Z,12.60
2018-11-05T12:53:16.381Z,12.70
2018-11-05T12:55:45.834Z,12.80
2018-11-05T12:58:22.333Z,12.80
2018-11-05T13:00:52.094Z,12.80
2018-11-05T13:03:24.994Z,12.80
2018-11-05T13:05:53.817Z,12.70
2018-11-05T13:08:22.554Z,12.70
2018-11-05T13:10:51.302Z,12.70
2018-11-05T13:13:20.029Z,12.60
2018-11-05T13:15:48.753Z,12.70
2018-11-05T13:18:17.503Z,12.60
2018-11-05T13:20:46.364Z,12.50
2018-11-05T13:23:46.690Z,12.50
2018-11-05T13:26:16.291Z,12.50
2018-11-05T13:28:45.204Z,12.60
2018-11-05T13:31:13.972Z,12.60
2018-11-05T13:33:42.920Z,12.50
2018-11-05T13:36:11.694Z,12.50
2018-11-05T13:38:40.646Z,12.40
2018-11-05T13:41:09.526Z,12.40
2018-11-05T13:43:38.396Z,12.40
2018-11-05T13:46:07.400Z,12.40
2018-11-05T13:48:36.410Z,12.30
2018-11-05T13:51:05.701Z,12.30
2018-11-05T13:53:34.497Z,12.20
2018-11-05T13:56:03.254Z,12.10
2018-11-05T13:58:32.263Z,12.00
2018-11-05T14:01:01.717Z,11.90
2018-11-05T14:03:30.460Z,11.90
2018-11-05T14:05:59.326Z,11.90
2018-11-05T14:08:28.101Z,11.90
2018-11-05T14:10:56.981Z,11.80
2018-11-05T14:13:25.776Z,11.80
2018-11-05T14:15:54.565Z,11.70
2018-11-05T14:18:23.670Z,11.70
2018-11-05T14:20:52.614Z,11.70
2018-11-05T14:23:21.548Z,11.70
2018-11-05T14:25:50.535Z,11.70
2018-11-05T14:28:19.529Z,11.70
2018-11-05T14:30:48.063Z,11.70
2018-11-05T14:33:16.788Z,11.60
2018-11-05T14:35:45.534Z,11.60
2018-11-05T14:38:14.242Z,11.60
2018-11-05T14:40:42.967Z,11.60
2018-11-05T14:43:11.893Z,11.70
2018-11-05T14:45:40.561Z,11.60
2018-11-05T14:48:09.297Z,11.60
2018-11-05T14:50:38.121Z,11.60
2018-11-05T14:53:06.794Z,11.60
2018-11-05T14:55:35.614Z,11.70
2018-11-05T14:58:04.842Z,11.60
2018-11-05T15:00:33.575Z,11.60
2018-11-05T15:03:02.359Z,11.50
2018-11-05T15:05:31.401Z,11.50
2018-11-05T15:08:00.231Z,11.50
2018-11-05T15:10:28.945Z,11.50
2018-11-05T15:12:57.776Z,11.40
2018-11-05T15:15:26.542Z,11.40
2018-11-05T15:17:55.347Z,11.40
2018-11-05T15:20:24.379Z,11.30
2018-11-05T15:22:53.191Z,11.20
2018-11-05T15:25:22.551Z,11.20
2018-11-05T15:27:57.023Z,11.10
2018-11-05T15:33:02.556Z,11.00
2018-11-05T15:35:32.728Z,11.00
2018-11-05T15:38:01.518Z,10.90
2018-11-05T15:40:30.344Z,10.90
2018-11-05T15:43:01.491Z,10.80
2018-11-05T15:45:36.235Z,10.90
2018-11-05T15:48:07.069Z,10.90
2018-11-05T15:50:36.069Z,10.90
2018-11-05T15:53:09.751Z,10.90
2018-11-05T15:55:38.624Z,10.80
2018-11-05T15:58:08.776Z,10.90
2018-11-05T16:00:39.108Z,10.80
2018-11-05T16:03:10.117Z,10.80
2018-11-05T16:05:44.417Z,10.80
2018-11-05T16:08:15.018Z,10.80
2018-11-05T16:13:21.386Z,10.70
2018-11-05T16:18:35.513Z,10.70
2018-11-05T16:21:04.496Z,10.60
2018-11-05T16:23:33.688Z,10.60
2018-11-05T16:26:02.502Z,10.60
2018-11-05T16:28:31.293Z,10.50
2018-11-05T16:31:03.972Z,10.60
2018-11-05T16:33:32.729Z,10.50
2018-11-05T16:36:03.575Z,10.50
2018-11-05T16:38:32.688Z,10.50
2018-11-05T16:43:34.813Z,10.30
2018-11-05T16:46:06.341Z,10.30
2018-11-05T16:48:35.075Z,10.40
2018-11-05T16:51:04.062Z,10.30
2018-11-05T16:53:32.855Z,10.30
2018-11-05T16:56:01.799Z,10.30
2018-11-05T16:58:31.602Z,10.40
2018-11-05T17:01:01.484Z,10.30
2018-11-05T17:03:34.046Z,10.30
2018-11-05T17:06:02.901Z,10.30
2018-11-05T17:08:31.596Z,10.40
2018-11-05T17:11:01.037Z,10.30
2018-11-05T17:13:30.194Z,10.30
2018-11-05T17:15:58.902Z,10.40
2018-11-05T17:18:27.675Z,10.40
2018-11-05T17:20:56.415Z,10.40
2018-11-05T17:23:25.213Z,10.40
2018-11-05T17:25:53.941Z,10.40
2018-11-05T17:28:22.713Z,10.40
2018-11-05T17:30:52.806Z,10.30
2018-11-05T17:33:21.793Z,10.30
2018-11-05T17:35:51.713Z,10.20
2018-11-05T17:38:22.746Z,10.20
2018-11-05T17:40:51.580Z,10.30
2018-11-05T17:43:22.254Z,10.20
2018-11-05T17:45:52.273Z,10.30
2018-11-05T17:48:21.090Z,10.20
2018-11-05T17:50:49.963Z,10.10
2018-11-05T17:53:18.780Z,10.20
2018-11-05T17:55:48.002Z,10.20
2018-11-05T17:58:16.941Z,10.20
2018-11-05T18:00:46.107Z,10.20
2018-11-05T18:03:15.096Z,10.20
2018-11-05T18:05:48.737Z,10.20
2018-11-05T18:08:19.113Z,10.20
2018-11-05T18:10:49.457Z,10.20
2018-11-05T18:13:18.404Z,10.20
2018-11-05T18:15:47.142Z,10.20
2018-11-05T18:18:15.981Z,10.30
2018-11-05T18:20:44.838Z,10.30
2018-11-05T18:23:13.715Z,10.30
2018-11-05T18:25:42.566Z,10.30
2018-11-05T18:28:11.326Z,10.30
2018-11-05T18:30:40.503Z,10.20
2018-11-05T18:33:09.295Z,10.20
2018-11-05T18:35:38.033Z,10.20
2018-11-05T18:38:07.092Z,10.20
2018-11-05T18:40:35.879Z,10.20
2018-11-05T18:43:04.819Z,10.20
2018-11-05T18:45:34.266Z,10.20
2018-11-05T18:48:03.019Z,10.20
2018-11-05T18:50:31.894Z,10.20
2018-11-05T18:53:00.920Z,10.20
2018-11-05T18:55:29.830Z,10.20
2018-11-05T18:57:58.631Z,10.20
2018-11-05T19:00:28.018Z,10.20
2018-11-05T19:02:57.800Z,10.20
2018-11-05T19:05:27.753Z,10.20
2018-11-05T19:07:57.056Z,10.20
2018-11-05T19:10:25.890Z,10.20
2018-11-05T19:12:54.867Z,10.30
2018-11-05T19:15:23.706Z,10.20
2018-11-05T19:17:53.016Z,10.20
2018-11-05T19:20:23.192Z,10.10
2018-11-05T19:22:52.231Z,10.10
2018-11-05T19:25:21.561Z,10.20
2018-11-05T19:27:50.280Z,10.20
2018-11-05T19:30:25.856Z,10.20
2018-11-05T19:32:54.610Z,10.20
2018-11-05T19:38:02.342Z,10.20
2018-11-05T19:40:31.166Z,10.20
2018-11-05T19:42:59.941Z,10.30
2018-11-05T19:45:28.641Z,10.40
2018-11-05T19:47:57.362Z,10.40
2018-11-05T19:50:26.137Z,10.40
2018-11-05T19:52:55.054Z,10.50
2018-11-05T19:55:23.826Z,10.50
2018-11-05T19:57:53.264Z,10.60
2018-11-05T20:00:23.645Z,10.60
2018-11-05T20:02:52.662Z,10.60
2018-11-05T20:05:21.768Z,10.60
2018-11-05T20:07:52.813Z,10.70
2018-11-05T20:10:21.571Z,10.70
2018-11-05T20:12:52.414Z,10.80
2018-11-05T20:15:21.291Z,10.80
2018-11-05T20:17:51.188Z,10.90
2018-11-05T20:20:23.569Z,10.90
2018-11-05T20:22:52.456Z,10.90
2018-11-05T20:25:21.354Z,10.90
2018-11-05T20:27:50.128Z,11.00
2018-11-05T20:30:21.024Z,11.00
2018-11-05T20:32:51.400Z,11.00
2018-11-05T20:35:19.764Z,11.00
2018-11-05T20:37:49.376Z,11.00
2018-11-05T20:40:20.047Z,11.10
2018-11-05T20:42:49.997Z,11.10
2018-11-05T20:45:19.630Z,11.10
2018-11-05T20:47:49.368Z,11.10
2018-11-05T20:50:18.892Z,11.10
2018-11-05T20:52:48.013Z,11.10
2018-11-05T20:55:17.656Z,11.10
2018-11-05T20:57:46.502Z,11.10
2018-11-05T21:00:16.747Z,11.10
2018-11-05T21:02:45.503Z,11.10
2018-11-05T21:05:14.390Z,11.10
2018-11-05T21:07:43.616Z,11.10
2018-11-05T21:10:13.491Z,11.10
2018-11-05T21:12:42.953Z,11.10
2018-11-05T21:15:22.182Z,11.10
2018-11-05T21:17:52.591Z,11.00
2018-11-05T21:20:21.368Z,11.00
2018-11-05T21:22:50.912Z,11.00
2018-11-05T21:25:19.425Z,11.00
2018-11-05T21:27:48.200Z,11.00
2018-11-05T21:30:18.479Z,11.00
2018-11-05T21:32:47.175Z,11.00
2018-11-05T21:35:17.920Z,11.00
2018-11-05T21:37:46.672Z,11.00
2018-11-05T21:40:17.949Z,11.00
2018-11-05T21:42:47.505Z,11.00
2018-11-05T21:45:16.725Z,11.00
2018-11-05T21:47:46.276Z,11.00
2018-11-05T21:50:17.421Z,11.00
2018-11-05T21:52:47.413Z,11.00
2018-11-05T21:55:16.170Z,11.00
2018-11-05T21:57:47.568Z,11.00
2018-11-05T22:00:18.986Z,11.00
2018-11-05T22:02:53.266Z,11.00
2018-11-05T22:05:22.061Z,11.00
2018-11-05T22:07:50.831Z,11.00
2018-11-05T22:10:19.557Z,11.00
2018-11-05T22:12:48.783Z,10.90
2018-11-05T22:15:17.867Z,10.90
2018-11-05T22:17:46.677Z,10.90
2018-11-05T22:20:15.678Z,10.90
2018-11-05T22:22:44.513Z,10.90
2018-11-05T22:25:13.250Z,10.90
2018-11-05T22:27:42.028Z,10.90
2018-11-05T22:30:11.420Z,10.80
2018-11-05T22:32:40.209Z,10.80
2018-11-05T22:35:08.960Z,10.80
2018-11-05T22:37:37.832Z,10.80
2018-11-05T22:40:09.347Z,10.70
2018-11-05T22:42:38.213Z,10.70
2018-11-05T22:45:07.683Z,10.70
2018-11-05T22:50:11.547Z,10.70
2018-11-05T22:52:41.063Z,10.70
2018-11-05T22:55:09.987Z,10.70
2018-11-05T22:57:38.881Z,10.70
2018-11-05T23:00:18.901Z,10.70
2018-11-05T23:02:53.093Z,10.70
2018-11-05T23:05:21.998Z,10.60
2018-11-05T23:07:51.731Z,10.70
2018-11-05T23:10:20.748Z,10.60
2018-11-05T23:12:49.571Z,10.60
2018-11-05T23:15:19.058Z,10.60
2018-11-05T23:17:47.893Z,10.60
2018-11-05T23:20:16.636Z,10.60
2018-11-05T23:22:51.715Z,10.60
2018-11-05T23:25:20.453Z,10.60
2018-11-05T23:27:49.186Z,10.60
2018-11-05T23:30:17.895Z,10.50
2018-11-05T23:32:46.725Z,10.50
2018-11-05T23:35:15.515Z,10.50
2018-11-05T23:37:44.305Z,10.60
2018-11-05T23:40:13.251Z,10.60
2018-11-05T23:42:42.154Z,10.50
2018-11-05T23:45:13.117Z,10.50
2018-11-05T23:47:42.616Z,10.50
2018-11-05T23:50:11.920Z,10.50
2018-11-05T23:52:40.786Z,10.50
2018-11-05T23:55:10.268Z,10.60
2018-11-05T23:57:39.034Z,10.60
